createdAt,value
2022-11-01T00:04:16.566Z,100560.13
2022-11-01T00:09:18.246Z,100535.53
2022-11-01T00:14:20.258Z,100529.53
2022-11-01T00:19:21.789Z,100519.88
2022-11-01T00:24:23.312Z,100504.66
2022-11-01T00:29:25.020Z,100482.81
2022-11-01T00:34:26.615Z,100489.47
2022-11-01T00:39:30.555Z,100474.84
2022-11-01T00:44:33.198Z,100492.81
2022-11-01T00:49:34.787Z,100531.13
2022-11-01T00:54:36.426Z,100518.50
2022-11-01T00:59:40.926Z,100519.16
2022-11-01T01:04:42.889Z,100533.25
2022-11-01T01:09:44.430Z,100532.25
2022-11-01T01:14:45.978Z,100532.84
2022-11-01T01:19:47.524Z,100527.84
2022-11-01T01:24:49.188Z,100519.38
2022-11-01T01:29:51.785Z,100525.59
2022-11-01T01:34:53.320Z,100515.47
2022-11-01T01:39:54.876Z,100512.16
2022-11-01T01:44:56.309Z,100509.84
2022-11-01T01:50:16.041Z,100504.91
2022-11-01T01:55:24.321Z,100489.91
2022-11-01T02:00:26.704Z,100494.28
2022-11-01T02:05:36.210Z,100491.78
2022-11-01T02:10:38.419Z,100507.06
2022-11-01T02:16:00.684Z,100519.53
2022-11-01T02:21:22.340Z,100505.25
2022-11-01T02:26:32.958Z,100518.59
2022-11-01T02:31:56.276Z,100520.19
2022-11-01T02:37:23.419Z,100513.28
2022-11-01T02:42:32.667Z,100511.44
2022-11-01T02:47:35.043Z,100515.25
2022-11-01T02:52:40.413Z,100514.53
2022-11-01T02:57:42.370Z,100519.16
2022-11-01T03:02:45.331Z,100530.91
2022-11-01T03:07:52.572Z,100528.59
2022-11-01T03:13:13.971Z,100531.31
2022-11-01T03:18:33.020Z,100533.03
2022-11-01T03:23:43.411Z,100536.13
2022-11-01T03:28:50.416Z,100532.19
2022-11-01T03:33:59.402Z,100531.38
2022-11-01T03:39:11.191Z,100534.81
2022-11-01T03:44:14.115Z,100548.19
2022-11-01T03:49:19.717Z,100548.31
2022-11-01T03:54:21.479Z,100553.38
2022-11-01T03:59:23.353Z,100551.06
2022-11-01T04:04:24.919Z,100565.56
2022-11-01T04:09:26.453Z,100577.31
2022-11-01T04:14:28.019Z,100571.00
2022-11-01T04:19:29.535Z,100567.66
2022-11-01T04:24:31.060Z,100578.84
2022-11-01T04:29:32.610Z,100594.28
2022-11-01T04:34:34.104Z,100599.69
2022-11-01T04:39:35.675Z,100614.53
2022-11-01T04:44:37.343Z,100615.69
2022-11-01T04:49:38.993Z,100612.69
2022-11-01T04:54:40.666Z,100627.31
2022-11-01T04:59:42.240Z,100626.38
2022-11-01T05:04:43.820Z,100639.38
2022-11-01T05:09:45.348Z,100633.00
2022-11-01T05:14:46.941Z,100627.91
2022-11-01T05:19:48.798Z,100636.56
2022-11-01T05:24:50.354Z,100637.88
2022-11-01T05:29:51.883Z,100663.31
2022-11-01T05:34:53.427Z,100665.53
2022-11-01T05:39:54.978Z,100681.84
2022-11-01T05:44:56.549Z,100692.16
2022-11-01T05:49:58.261Z,100687.47
2022-11-01T05:54:59.840Z,100713.31
2022-11-01T06:00:01.638Z,100716.72
2022-11-01T06:05:13.507Z,100737.75
2022-11-01T06:10:15.059Z,100741.28
2022-11-01T06:15:16.702Z,100743.56
2022-11-01T06:20:18.240Z,100748.16
2022-11-01T06:25:20.080Z,100747.69
2022-11-01T06:30:21.710Z,100765.00
2022-11-01T06:35:23.265Z,100782.53
2022-11-01T06:40:24.818Z,100787.13
2022-11-01T06:45:26.342Z,100793.25
2022-11-01T06:50:27.942Z,100805.34
2022-11-01T06:55:30.873Z,100822.38
2022-11-01T07:00:32.636Z,100847.28
2022-11-01T07:05:37.632Z,100862.41
2022-11-01T07:10:41.802Z,100883.88
2022-11-01T07:15:43.375Z,100891.50
2022-11-01T07:25:52.205Z,100913.63
2022-11-01T07:30:55.322Z,100920.41
2022-11-01T07:35:56.933Z,100932.66
2022-11-01T07:40:58.643Z,100944.09
2022-11-01T07:46:00.307Z,100953.59
2022-11-01T07:51:01.998Z,100970.06
2022-11-01T07:56:03.906Z,100973.78
2022-11-01T08:01:05.513Z,100984.72
2022-11-01T08:06:07.318Z,100995.66
2022-11-01T08:11:09.000Z,101003.16
2022-11-01T08:16:10.585Z,101015.88
2022-11-01T08:21:12.114Z,101016.78
2022-11-01T08:26:14.927Z,101030.63
2022-11-01T08:31:16.585Z,101040.25
2022-11-01T08:36:18.137Z,101050.72
2022-11-01T08:41:19.757Z,101053.69
2022-11-01T08:46:21.337Z,101051.88
2022-11-01T08:51:23.496Z,101067.19
2022-11-01T08:56:25.406Z,101055.66
2022-11-01T09:01:27.468Z,101066.50
2022-11-01T09:06:33.790Z,101064.00
2022-11-01T09:11:37.948Z,101079.69
2022-11-01T09:16:39.481Z,101081.78
2022-11-01T09:21:43.518Z,101086.16
2022-11-01T09:26:45.028Z,101084.53
2022-11-01T09:31:50.148Z,101081.28
2022-11-01T09:36:51.709Z,101083.25
2022-11-01T09:42:01.828Z,101078.78
2022-11-01T09:47:14.805Z,101094.34
2022-11-01T09:52:21.008Z,101098.88
2022-11-01T09:57:35.670Z,101094.03
2022-11-01T10:02:52.216Z,101090.09
2022-11-01T10:08:12.301Z,101095.78
2022-11-01T10:13:28.828Z,101095.53
2022-11-01T10:18:32.744Z,101109.22
2022-11-01T10:23:48.942Z,101122.16
2022-11-01T10:29:13.539Z,101119.22
2022-11-01T10:34:21.304Z,101107.56
2022-11-01T10:45:00.859Z,101118.63
2022-11-01T10:50:15.270Z,101120.69
2022-11-01T10:55:43.502Z,101115.06
2022-11-01T11:00:46.105Z,101113.56
2022-11-01T11:05:49.925Z,101115.50
2022-11-01T11:10:52.394Z,101119.16
2022-11-01T11:15:57.743Z,101116.94
2022-11-01T11:21:03.603Z,101116.00
2022-11-01T11:26:08.917Z,101116.66
2022-11-01T11:31:20.292Z,101116.09
2022-11-01T11:36:31.636Z,101113.91
2022-11-01T11:41:35.406Z,101113.88
2022-11-01T11:46:37.139Z,101109.25
2022-11-01T11:51:39.160Z,101117.72
2022-11-01T11:56:40.678Z,101115.38
2022-11-01T12:01:42.684Z,101124.63
2022-11-01T12:06:46.198Z,101122.38
2022-11-01T12:11:48.551Z,101119.06
2022-11-01T12:16:50.365Z,101120.50
2022-11-01T12:21:53.421Z,101131.16
2022-11-01T12:27:00.167Z,101114.53
2022-11-01T12:32:12.524Z,101127.38
2022-11-01T12:37:21.130Z,101118.72
2022-11-01T12:42:28.413Z,101125.16
2022-11-01T12:47:38.548Z,101114.88
2022-11-01T12:52:48.079Z,101109.03
2022-11-01T12:57:49.910Z,101102.69
2022-11-01T13:03:11.767Z,101111.47
2022-11-01T13:08:31.967Z,101111.81
2022-11-01T13:13:44.760Z,101122.66
2022-11-01T13:18:58.666Z,101116.91
2022-11-01T13:24:16.233Z,101117.28
2022-11-01T13:29:33.903Z,101116.94
2022-11-01T13:35:07.861Z,101113.88
2022-11-01T13:40:46.407Z,101110.91
2022-11-01T13:46:06.677Z,101102.00
2022-11-01T13:51:15.396Z,101102.81
2022-11-01T13:56:42.756Z,101112.06
2022-11-01T14:01:44.520Z,101105.00
2022-11-01T14:07:05.206Z,101115.84
2022-11-01T14:12:06.887Z,101118.50
2022-11-01T14:17:20.658Z,101115.97
2022-11-01T14:22:22.114Z,101117.38
2022-11-01T14:27:36.292Z,101127.63
2022-11-01T14:32:37.979Z,101126.84
2022-11-01T14:37:47.061Z,101137.38
2022-11-01T14:42:50.616Z,101121.63
2022-11-01T14:47:56.252Z,101140.13
2022-11-01T14:53:09.815Z,101140.94
2022-11-01T14:58:17.313Z,101136.78
2022-11-01T15:03:19.382Z,101134.44
2022-11-01T15:08:50.559Z,101142.91
2022-11-01T15:13:52.209Z,101149.97
2022-11-01T15:19:05.065Z,101141.00
2022-11-01T15:24:06.832Z,101144.41
2022-11-01T15:29:16.938Z,101151.13
2022-11-01T15:34:30.041Z,101149.81
2022-11-01T15:39:35.685Z,101150.50
2022-11-01T15:44:39.681Z,101157.91
2022-11-01T15:50:00.543Z,101150.13
2022-11-01T15:55:02.076Z,101147.38
2022-11-01T16:00:07.026Z,101148.38
2022-11-01T16:05:24.864Z,101147.53
2022-11-01T16:10:29.607Z,101146.91
2022-11-01T16:15:33.542Z,101155.16
2022-11-01T16:20:38.645Z,101157.19
2022-11-01T16:25:40.432Z,101159.63
2022-11-01T16:30:53.187Z,101162.88
2022-11-01T16:35:56.109Z,101160.53
2022-11-01T16:41:00.215Z,101158.69
2022-11-01T16:46:03.771Z,101171.97
2022-11-01T16:51:05.357Z,101178.00
2022-11-01T16:56:34.910Z,101186.56
2022-11-01T17:01:35.775Z,101190.97
2022-11-01T17:06:40.545Z,101192.47
2022-11-01T17:11:47.842Z,101185.88
2022-11-01T17:16:52.655Z,101189.16
2022-11-01T17:21:54.836Z,101187.28
2022-11-01T17:26:58.142Z,101193.91
2022-11-01T17:32:00.298Z,101198.25
2022-11-01T17:37:02.103Z,101208.22
2022-11-01T17:42:03.777Z,101210.31
2022-11-01T17:47:05.557Z,101205.56
2022-11-01T17:52:07.189Z,101204.50
2022-11-01T17:57:08.765Z,101211.84
2022-11-01T18:02:10.618Z,101208.56
2022-11-01T18:07:12.394Z,101200.94
2022-11-01T18:12:36.456Z,101204.59
2022-11-01T18:18:11.390Z,101200.50
2022-11-01T18:23:16.866Z,101201.94
2022-11-01T18:28:24.582Z,101201.41
2022-11-01T18:33:57.015Z,101205.06
2022-11-01T18:39:14.369Z,101204.38
2022-11-01T18:44:15.909Z,101209.09
2022-11-01T18:49:17.415Z,101209.28
2022-11-01T18:54:30.515Z,101212.16
2022-11-01T18:59:36.224Z,101209.78
2022-11-01T19:04:39.622Z,101213.00
2022-11-01T19:09:49.575Z,101199.31
2022-11-01T19:14:59.569Z,101211.97
2022-11-01T19:20:01.148Z,101207.91
2022-11-01T19:25:14.178Z,101210.22
2022-11-01T19:30:28.183Z,101200.13
2022-11-01T19:35:29.707Z,101202.28
2022-11-01T19:40:33.633Z,101194.31
2022-11-01T19:45:35.402Z,101190.28
2022-11-01T19:50:40.648Z,101192.91
2022-11-01T19:56:05.540Z,101191.19
2022-11-01T20:01:19.257Z,101191.50
2022-11-01T20:06:27.066Z,101186.84
2022-11-01T20:11:28.715Z,101179.19
2022-11-01T20:16:30.298Z,101180.34
2022-11-01T20:21:32.004Z,101176.78
2022-11-01T20:26:33.955Z,101190.75
2022-11-01T20:31:35.489Z,101185.75
2022-11-01T20:36:37.011Z,101178.81
2022-11-01T20:41:38.534Z,101189.22
2022-11-01T20:46:40.132Z,101191.44
2022-11-01T20:51:41.652Z,101195.63
2022-11-01T20:56:43.174Z,101198.50
2022-11-01T21:01:44.820Z,101191.31
2022-11-01T21:06:46.450Z,101206.41
2022-11-01T21:11:48.222Z,101196.13
2022-11-01T21:16:50.564Z,101182.13
2022-11-01T21:21:57.061Z,101180.53
2022-11-01T21:27:10.984Z,101188.88
2022-11-01T21:32:21.641Z,101195.22
2022-11-01T21:37:24.163Z,101198.75
2022-11-01T21:42:33.088Z,101198.44
2022-11-01T21:47:34.701Z,101197.25
2022-11-01T21:52:36.202Z,101185.28
2022-11-01T21:57:37.820Z,101184.97
2022-11-01T22:02:39.547Z,101185.78
2022-11-01T22:07:41.254Z,101184.91
2022-11-01T22:12:42.868Z,101186.00
2022-11-01T22:17:44.415Z,101177.00
2022-11-01T22:22:46.013Z,101176.44
2022-11-01T22:27:47.634Z,101172.47
2022-11-01T22:32:49.212Z,101162.00
2022-11-01T22:37:50.818Z,101161.00
2022-11-01T22:42:59.088Z,101147.78
2022-11-01T22:48:00.836Z,101154.81
2022-11-01T22:53:04.643Z,101159.44
2022-11-01T22:58:32.541Z,101152.84
2022-11-01T23:03:39.578Z,101147.81
2022-11-01T23:08:41.203Z,101149.34
2022-11-01T23:13:42.793Z,101148.50
2022-11-01T23:18:44.742Z,101158.00
2022-11-01T23:23:47.274Z,101146.31
2022-11-01T23:28:52.240Z,101147.31
2022-11-01T23:33:54.241Z,101134.03
2022-11-01T23:39:03.059Z,101146.22
2022-11-01T23:44:20.275Z,101140.38
2022-11-01T23:49:29.089Z,101128.84
2022-11-01T23:54:36.847Z,101114.63
2022-11-01T23:59:38.445Z,101125.84
